createdAt,value
2023-11-28T00:01:50.322Z,98713.00
2023-11-28T00:04:17.922Z,98713.00
2023-11-28T00:06:45.161Z,98722.00
2023-11-28T00:09:12.465Z,98724.00
2023-11-28T00:11:39.802Z,98695.00
2023-11-28T00:14:07.178Z,98708.00
2023-11-28T00:16:34.467Z,98708.00
2023-11-28T00:19:01.894Z,98700.00
2023-11-28T00:21:29.184Z,98700.00
2023-11-28T00:23:56.548Z,98710.00
2023-11-28T00:26:23.684Z,98711.00
2023-11-28T00:28:51.383Z,98714.00
2023-11-28T00:31:18.715Z,98704.00
2023-11-28T00:33:46.720Z,98702.00
2023-11-28T00:36:18.193Z,98713.00
2023-11-28T00:38:45.510Z,98706.00
2023-11-28T00:41:13.431Z,98701.00
2023-11-28T00:43:40.690Z,98699.00
2023-11-28T00:46:09.440Z,98683.00
2023-11-28T00:48:37.069Z,98677.00
2023-11-28T00:51:06.949Z,98694.00
2023-11-28T00:53:34.572Z,98690.00
2023-11-28T00:56:01.887Z,98688.00
2023-11-28T00:58:29.609Z,98688.00
2023-11-28T01:00:57.306Z,98684.00
2023-11-28T01:03:24.959Z,98689.00
2023-11-28T01:05:52.451Z,98690.00
2023-11-28T01:08:19.845Z,98681.00
2023-11-28T01:10:47.404Z,98681.00
2023-11-28T01:13:14.730Z,98678.00
2023-11-28T01:15:42.470Z,98693.00
2023-11-28T01:18:09.837Z,98679.00
2023-11-28T01:20:37.221Z,98672.00
2023-11-28T01:23:05.155Z,98675.00
2023-11-28T01:25:32.754Z,98672.00
2023-11-28T01:28:00.186Z,98675.00
2023-11-28T01:30:27.518Z,98675.00
2023-11-28T01:32:55.345Z,98669.00
2023-11-28T01:35:22.936Z,98660.00
2023-11-28T01:37:50.324Z,98665.00
2023-11-28T01:40:18.309Z,98677.00
2023-11-28T01:42:48.465Z,98668.00
2023-11-28T01:45:16.437Z,98663.00
2023-11-28T01:47:44.013Z,98655.00
2023-11-28T01:50:11.791Z,98658.00
2023-11-28T01:52:40.174Z,98664.00
2023-11-28T01:55:08.317Z,98645.00
2023-11-28T01:57:35.804Z,98657.00
2023-11-28T02:00:05.379Z,98649.00
2023-11-28T02:02:33.901Z,98646.00
2023-11-28T02:05:01.450Z,98640.00
2023-11-28T02:07:29.237Z,98645.00
2023-11-28T02:09:57.832Z,98647.00
2023-11-28T02:12:26.096Z,98645.00
2023-11-28T02:14:54.372Z,98638.00
2023-11-28T02:17:21.756Z,98642.00
2023-11-28T02:19:52.508Z,98631.00
2023-11-28T02:22:20.269Z,98639.00
2023-11-28T02:24:54.563Z,98644.00
2023-11-28T02:27:22.223Z,98640.00
2023-11-28T02:29:49.579Z,98635.00
2023-11-28T02:32:17.167Z,98631.00
2023-11-28T02:34:44.838Z,98634.00
2023-11-28T02:37:12.567Z,98633.00
2023-11-28T02:39:40.133Z,98627.00
2023-11-28T02:42:07.598Z,98616.00
2023-11-28T02:44:35.044Z,98617.00
2023-11-28T02:47:02.650Z,98614.00
2023-11-28T02:49:30.104Z,98615.00
2023-11-28T02:51:57.444Z,98584.00
2023-11-28T02:54:25.848Z,98606.00
2023-11-28T02:56:55.196Z,98604.00
2023-11-28T02:59:22.502Z,98599.00
2023-11-28T03:01:56.033Z,98598.00
2023-11-28T03:04:24.077Z,98583.00
2023-11-28T03:06:52.301Z,98581.00
2023-11-28T03:09:20.667Z,98579.00
2023-11-28T03:11:48.404Z,98561.00
2023-11-28T03:14:15.811Z,98579.00
2023-11-28T03:16:43.229Z,98537.00
2023-11-28T03:19:12.591Z,98573.00
2023-11-28T03:21:40.547Z,98563.00
2023-11-28T03:24:09.301Z,98561.00
2023-11-28T03:26:36.792Z,98547.00
2023-11-28T03:29:04.572Z,98547.00
2023-11-28T03:31:32.248Z,98557.00
2023-11-28T03:33:59.858Z,98546.00
2023-11-28T03:36:27.733Z,98557.00
2023-11-28T03:38:56.003Z,98550.00
2023-11-28T03:41:23.562Z,98551.00
2023-11-28T03:43:52.568Z,98555.00
2023-11-28T03:46:20.610Z,98529.00
2023-11-28T03:48:48.447Z,98522.00
2023-11-28T03:51:17.206Z,98523.00
2023-11-28T03:53:45.019Z,98522.00
2023-11-28T03:56:14.048Z,98525.00
2023-11-28T03:58:41.908Z,98526.00
2023-11-28T04:01:09.693Z,98525.00
2023-11-28T04:03:37.817Z,98537.00
2023-11-28T04:06:07.161Z,98508.00
2023-11-28T04:08:35.357Z,98530.00
2023-11-28T04:11:03.515Z,98523.00
2023-11-28T04:13:31.744Z,98537.00
2023-11-28T04:16:00.159Z,98526.00
2023-11-28T04:18:32.310Z,98526.00
2023-11-28T04:21:00.607Z,98522.00
2023-11-28T04:23:27.848Z,98526.00
2023-11-28T04:25:55.658Z,98512.00
2023-11-28T04:28:22.983Z,98512.00
2023-11-28T04:30:51.231Z,98516.00
2023-11-28T04:33:19.445Z,98506.00
2023-11-28T04:35:46.892Z,98497.00
2023-11-28T04:38:14.249Z,98488.00
2023-11-28T04:40:41.918Z,98492.00
2023-11-28T04:43:09.833Z,98493.00
2023-11-28T04:45:37.742Z,98493.00
2023-11-28T04:48:05.433Z,98473.00
2023-11-28T04:50:33.575Z,98486.00
2023-11-28T04:53:00.979Z,98487.00
2023-11-28T04:55:29.471Z,98478.00
2023-11-28T04:57:57.387Z,98477.00
2023-11-28T05:00:24.568Z,98470.00
2023-11-28T05:02:53.162Z,98477.00
2023-11-28T05:05:20.929Z,98473.00
2023-11-28T05:07:48.615Z,98454.00
2023-11-28T05:10:16.863Z,98461.00
2023-11-28T05:12:45.388Z,98459.00
2023-11-28T05:15:13.594Z,98460.00
2023-11-28T05:17:41.866Z,98444.00
2023-11-28T05:20:11.213Z,98452.00
2023-11-28T05:22:40.215Z,98450.00
2023-11-28T05:25:08.125Z,98453.00
2023-11-28T05:27:36.547Z,98448.00
2023-11-28T05:30:04.293Z,98443.00
2023-11-28T05:32:32.110Z,98434.00
2023-11-28T05:34:59.820Z,98441.00
2023-11-28T05:37:27.192Z,98440.00
2023-11-28T05:39:54.538Z,98401.00
2023-11-28T05:42:22.343Z,98437.00
2023-11-28T05:44:50.832Z,98445.00
2023-11-28T05:47:20.102Z,98446.00
2023-11-28T05:49:48.471Z,98448.00
2023-11-28T05:52:16.609Z,98433.00
2023-11-28T05:54:44.577Z,98445.00
2023-11-28T05:57:12.537Z,98454.00
2023-11-28T05:59:39.883Z,98447.00
2023-11-28T06:02:11.790Z,98457.00
2023-11-28T06:04:39.759Z,98444.00
2023-11-28T06:07:08.035Z,98441.00
2023-11-28T06:09:35.570Z,98458.00
2023-11-28T06:12:04.822Z,98439.00
2023-11-28T06:14:35.009Z,98447.00
2023-11-28T06:17:02.583Z,98452.00
2023-11-28T06:19:31.362Z,98449.00
2023-11-28T06:21:59.168Z,98456.00
2023-11-28T06:24:26.647Z,98457.00
2023-11-28T06:26:55.206Z,98470.00
2023-11-28T06:29:23.425Z,98463.00
2023-11-28T06:31:51.898Z,98434.00
2023-11-28T06:34:20.001Z,98458.00
2023-11-28T06:36:49.974Z,98453.00
2023-11-28T06:39:20.086Z,98425.00
2023-11-28T06:41:51.712Z,98337.00
2023-11-28T06:44:22.252Z,98455.00
2023-11-28T06:46:49.749Z,98448.00
2023-11-28T06:49:17.312Z,98455.00
2023-11-28T06:51:45.158Z,98448.00
2023-11-28T06:54:13.230Z,98461.00
2023-11-28T06:56:41.005Z,98461.00
2023-11-28T06:59:08.293Z,98454.00
2023-11-28T07:01:36.168Z,98464.00
2023-11-28T07:04:03.971Z,98459.00
2023-11-28T07:06:32.214Z,98463.00
2023-11-28T07:09:00.015Z,98467.00
2023-11-28T07:11:27.292Z,98468.00
2023-11-28T07:13:56.042Z,98458.00
2023-11-28T07:16:24.469Z,98464.00
2023-11-28T07:18:52.415Z,98465.00
2023-11-28T07:21:20.912Z,98480.00
2023-11-28T07:23:49.058Z,98473.00
2023-11-28T07:26:17.232Z,98447.00
2023-11-28T07:28:44.831Z,98480.00
2023-11-28T07:31:15.400Z,98472.00
2023-11-28T07:33:43.144Z,98467.00
2023-11-28T07:36:13.066Z,98456.00
2023-11-28T07:38:44.612Z,98477.00
2023-11-28T07:41:18.419Z,98472.00
2023-11-28T07:43:45.885Z,98481.00
2023-11-28T07:46:13.941Z,98484.00
2023-11-28T07:48:43.316Z,98465.00
2023-11-28T07:51:11.232Z,98482.00
2023-11-28T07:53:38.930Z,98487.00
2023-11-28T07:56:07.360Z,98483.00
2023-11-28T07:58:35.767Z,98492.00
2023-11-28T08:01:03.113Z,98497.00
2023-11-28T08:03:30.811Z,98488.00
2023-11-28T08:05:58.599Z,98493.00
2023-11-28T08:08:26.114Z,98490.00
2023-11-28T08:10:53.854Z,98492.00
2023-11-28T08:13:22.989Z,98500.00
2023-11-28T08:15:53.979Z,98479.00
2023-11-28T08:18:21.689Z,98505.00
2023-11-28T08:20:49.640Z,98511.00
2023-11-28T08:23:17.219Z,98508.00
2023-11-28T08:25:44.490Z,98508.00
2023-11-28T08:28:12.748Z,98502.00
2023-11-28T08:30:40.147Z,98510.00
2023-11-28T08:33:07.413Z,98520.00
2023-11-28T08:35:35.145Z,98525.00
2023-11-28T08:38:02.644Z,98519.00
2023-11-28T08:40:30.971Z,98517.00
2023-11-28T08:42:58.911Z,98521.00
2023-11-28T08:45:26.920Z,98504.00
2023-11-28T08:47:54.485Z,98517.00
2023-11-28T08:50:22.112Z,98522.00
2023-11-28T08:52:50.047Z,98520.00
2023-11-28T08:55:17.703Z,98517.00
2023-11-28T08:57:46.194Z,98482.00
2023-11-28T09:00:16.863Z,98519.00
2023-11-28T09:02:46.743Z,98512.00
2023-11-28T09:05:16.355Z,98511.00
2023-11-28T09:07:45.315Z,98513.00
2023-11-28T09:10:13.478Z,98521.00
2023-11-28T09:12:41.085Z,98520.00
2023-11-28T09:15:09.392Z,98513.00
2023-11-28T09:17:38.217Z,98505.00
2023-11-28T09:20:06.686Z,98519.00
2023-11-28T09:22:34.831Z,98514.00
2023-11-28T09:25:02.723Z,98511.00
2023-11-28T09:27:30.808Z,98521.00
2023-11-28T09:29:58.832Z,98507.00
2023-11-28T09:32:27.440Z,98505.00
2023-11-28T09:34:55.148Z,98498.00
2023-11-28T09:37:24.159Z,98498.00
2023-11-28T09:39:51.982Z,98502.00
2023-11-28T09:42:23.769Z,98506.00
2023-11-28T09:44:53.985Z,98506.00
2023-11-28T09:47:26.049Z,98504.00
2023-11-28T09:49:59.102Z,98502.00
2023-11-28T09:52:31.418Z,98507.00
2023-11-28T09:55:01.027Z,98501.00
2023-11-28T09:57:35.812Z,98494.00
2023-11-28T10:00:06.585Z,98480.00
2023-11-28T10:02:34.653Z,98497.00
2023-11-28T10:05:02.291Z,98500.00
2023-11-28T10:07:36.970Z,98505.00
2023-11-28T10:10:13.922Z,98496.00
2023-11-28T10:12:41.727Z,98496.00
2023-11-28T10:15:12.064Z,98493.00
2023-11-28T10:17:39.864Z,98505.00
2023-11-28T10:20:09.471Z,98497.00
2023-11-28T10:22:39.239Z,98501.00
2023-11-28T10:25:12.792Z,98496.00
2023-11-28T10:27:45.508Z,98491.00
2023-11-28T10:30:17.730Z,98483.00
2023-11-28T10:32:45.226Z,98486.00
2023-11-28T10:35:12.688Z,98504.00
2023-11-28T10:37:42.194Z,98490.00
2023-11-28T10:40:21.028Z,98483.00
2023-11-28T10:42:50.530Z,98499.00
2023-11-28T10:45:20.776Z,98501.00
2023-11-28T10:47:48.261Z,98499.00
2023-11-28T10:50:15.998Z,98507.00
2023-11-28T10:52:48.598Z,98503.00
2023-11-28T10:55:25.752Z,98510.00
2023-11-28T10:58:03.995Z,98509.00
2023-11-28T11:00:41.465Z,98504.00
2023-11-28T11:03:11.527Z,98507.00
2023-11-28T11:05:39.083Z,98500.00
2023-11-28T11:08:06.945Z,98520.00
2023-11-28T11:10:34.605Z,98514.00
2023-11-28T11:13:29.377Z,98509.00
2023-11-28T11:16:08.996Z,98516.00
2023-11-28T11:18:43.727Z,98509.00
2023-11-28T11:21:36.373Z,98496.00
2023-11-28T11:24:04.152Z,98491.00
2023-11-28T11:26:42.419Z,98499.00
2023-11-28T11:29:28.432Z,98509.00
2023-11-28T11:32:01.806Z,98499.00
2023-11-28T11:34:51.317Z,98496.00
2023-11-28T11:37:32.189Z,98503.00
2023-11-28T11:40:03.455Z,98500.00
2023-11-28T11:42:36.188Z,98507.00
2023-11-28T11:45:07.836Z,98513.00
2023-11-28T11:47:40.696Z,98503.00
2023-11-28T11:50:09.907Z,98500.00
2023-11-28T11:52:39.435Z,98504.00
2023-11-28T11:55:13.992Z,98507.00
2023-11-28T11:57:46.618Z,98512.00
2023-11-28T12:00:17.420Z,98509.00
2023-11-28T12:02:46.323Z,98517.00
2023-11-28T12:05:15.693Z,98505.00
2023-11-28T12:07:44.877Z,98508.00
2023-11-28T12:10:14.624Z,98512.00
2023-11-28T12:12:43.051Z,98504.00
2023-11-28T12:15:14.913Z,98510.00
2023-11-28T12:17:43.338Z,98507.00
2023-11-28T12:20:12.303Z,98508.00
2023-11-28T12:22:41.597Z,98503.00
2023-11-28T12:25:20.068Z,98503.00
2023-11-28T12:27:47.971Z,98487.00
2023-11-28T12:30:16.115Z,98505.00
2023-11-28T12:32:44.098Z,98508.00
2023-11-28T12:35:12.640Z,98514.00
2023-11-28T12:37:39.947Z,98488.00
2023-11-28T12:40:11.412Z,98510.00
2023-11-28T12:42:48.098Z,98516.00
2023-11-28T12:45:19.185Z,98510.00
2023-11-28T12:47:48.470Z,98510.00
2023-11-28T12:50:16.660Z,98502.00
2023-11-28T12:52:44.904Z,98505.00
2023-11-28T12:55:13.066Z,98525.00
2023-11-28T12:57:40.871Z,98523.00
2023-11-28T13:00:08.905Z,98517.00
2023-11-28T13:02:36.857Z,98534.00
2023-11-28T13:05:05.658Z,98529.00
2023-11-28T13:07:38.654Z,98537.00
2023-11-28T13:10:14.271Z,98523.00
2023-11-28T13:12:43.221Z,98538.00
2023-11-28T13:15:12.709Z,98520.00
2023-11-28T13:17:40.677Z,98537.00
2023-11-28T13:20:09.539Z,98540.00
2023-11-28T13:22:38.793Z,98543.00
2023-11-28T13:25:07.214Z,98543.00
2023-11-28T13:27:36.788Z,98540.00
2023-11-28T13:30:06.688Z,98543.00
2023-11-28T13:32:34.276Z,98539.00
2023-11-28T13:35:02.876Z,98548.00
2023-11-28T13:37:30.994Z,98548.00
2023-11-28T13:40:00.531Z,98551.00
2023-11-28T13:42:28.282Z,98548.00
2023-11-28T13:44:56.592Z,98556.00
2023-11-28T13:47:23.980Z,98543.00
2023-11-28T13:49:53.279Z,98556.00
2023-11-28T13:52:20.683Z,98565.00
2023-11-28T13:54:48.910Z,98554.00
2023-11-28T13:57:16.086Z,98557.00
2023-11-28T13:59:43.497Z,98555.00
2023-11-28T14:02:10.935Z,98565.00
2023-11-28T14:04:38.319Z,98570.00
2023-11-28T14:07:05.837Z,98557.00
2023-11-28T14:09:33.118Z,98567.00
2023-11-28T14:12:01.261Z,98557.00
2023-11-28T14:14:34.636Z,98568.00
2023-11-28T14:17:09.184Z,98577.00
2023-11-28T14:19:37.805Z,98575.00
2023-11-28T14:22:05.827Z,98582.00
2023-11-28T14:24:33.227Z,98597.00
2023-11-28T14:27:01.114Z,98582.00
2023-11-28T14:29:29.305Z,98582.00
2023-11-28T14:31:56.731Z,98584.00
2023-11-28T14:34:25.358Z,98584.00
2023-11-28T14:36:53.177Z,98587.00
2023-11-28T14:39:20.988Z,98589.00
2023-11-28T14:41:48.405Z,98596.00
2023-11-28T14:44:16.287Z,98589.00
2023-11-28T14:46:43.675Z,98587.00
2023-11-28T14:49:11.098Z,98595.00
2023-11-28T14:51:38.628Z,98593.00
2023-11-28T14:54:12.634Z,98594.00
2023-11-28T14:56:40.932Z,98599.00
2023-11-28T14:59:10.625Z,98596.00
2023-11-28T15:01:39.952Z,98603.00
2023-11-28T15:04:07.792Z,98593.00
2023-11-28T15:06:35.189Z,98598.00
2023-11-28T15:09:04.902Z,98606.00
2023-11-28T15:11:32.983Z,98607.00
2023-11-28T15:14:00.450Z,98612.00
2023-11-28T15:16:28.430Z,98596.00
2023-11-28T15:18:55.931Z,98600.00
2023-11-28T15:21:23.383Z,98611.00
2023-11-28T15:23:51.776Z,98587.00
2023-11-28T15:26:22.261Z,98616.00
2023-11-28T15:28:51.682Z,98613.00
2023-11-28T15:31:19.214Z,98616.00
2023-11-28T15:33:46.805Z,98619.00
2023-11-28T15:36:14.481Z,98617.00
2023-11-28T15:38:42.995Z,98624.00
2023-11-28T15:41:10.479Z,98630.00
2023-11-28T15:43:37.888Z,98635.00
2023-11-28T15:46:05.253Z,98631.00
2023-11-28T15:48:32.594Z,98624.00
2023-11-28T15:51:00.566Z,98625.00
2023-11-28T15:53:29.092Z,98635.00
2023-11-28T15:55:56.415Z,98635.00
2023-11-28T15:58:23.736Z,98647.00
2023-11-28T16:00:51.333Z,98633.00
2023-11-28T16:03:18.852Z,98633.00
2023-11-28T16:05:47.819Z,98634.00
2023-11-28T16:08:17.610Z,98641.00
2023-11-28T16:10:44.935Z,98649.00
2023-11-28T16:13:16.733Z,98646.00
2023-11-28T16:15:44.900Z,98637.00
2023-11-28T16:18:12.640Z,98645.00
2023-11-28T16:20:40.545Z,98645.00
2023-11-28T16:23:08.228Z,98649.00
2023-11-28T16:25:35.615Z,98654.00
2023-11-28T16:28:04.038Z,98651.00
2023-11-28T16:30:31.516Z,98656.00
2023-11-28T16:32:59.026Z,98656.00
2023-11-28T16:35:28.065Z,98660.00
2023-11-28T16:37:56.914Z,98655.00
2023-11-28T16:40:25.108Z,98665.00
2023-11-28T16:42:54.048Z,98663.00
2023-11-28T16:45:22.482Z,98662.00
2023-11-28T16:47:51.308Z,98672.00
2023-11-28T16:50:19.808Z,98674.00
2023-11-28T16:52:47.014Z,98666.00
2023-11-28T16:55:20.159Z,98671.00
2023-11-28T16:57:48.282Z,98670.00
2023-11-28T17:00:17.188Z,98671.00
2023-11-28T17:02:44.663Z,98676.00
2023-11-28T17:05:12.847Z,98680.00
2023-11-28T17:07:43.623Z,98680.00
2023-11-28T17:10:10.893Z,98672.00
2023-11-28T17:12:38.129Z,98677.00
2023-11-28T17:15:06.057Z,98686.00
2023-11-28T17:17:34.002Z,98685.00
2023-11-28T17:20:01.468Z,98692.00
2023-11-28T17:22:29.310Z,98695.00
2023-11-28T17:24:57.557Z,98687.00
2023-11-28T17:27:26.474Z,98669.00
2023-11-28T17:29:53.787Z,98700.00
2023-11-28T17:32:22.125Z,98705.00
2023-11-28T17:34:50.670Z,98699.00
2023-11-28T17:37:18.856Z,98705.00
2023-11-28T17:39:47.360Z,98709.00
2023-11-28T17:42:14.832Z,98714.00
2023-11-28T17:44:43.207Z,98717.00
2023-11-28T17:47:10.683Z,98710.00
2023-11-28T17:49:39.183Z,98697.00
2023-11-28T17:52:07.065Z,98713.00
2023-11-28T17:54:34.739Z,98713.00
2023-11-28T17:57:02.402Z,98718.00
2023-11-28T17:59:31.133Z,98708.00
2023-11-28T18:02:00.347Z,98733.00
2023-11-28T18:04:28.156Z,98729.00
2023-11-28T18:06:59.554Z,98737.00
2023-11-28T18:09:27.269Z,98745.00
2023-11-28T18:11:54.463Z,98744.00
2023-11-28T18:14:22.623Z,98748.00
2023-11-28T18:16:50.216Z,98744.00
2023-11-28T18:19:17.615Z,98743.00
2023-11-28T18:21:46.494Z,98740.00
2023-11-28T18:24:15.187Z,98749.00
2023-11-28T18:26:43.411Z,98754.00
2023-11-28T18:29:14.813Z,98759.00
2023-11-28T18:31:43.828Z,98765.00
2023-11-28T18:34:11.263Z,98766.00
2023-11-28T18:36:41.507Z,98758.00
2023-11-28T18:39:09.648Z,98761.00
2023-11-28T18:41:42.702Z,98779.00
2023-11-28T18:44:13.647Z,98777.00
2023-11-28T18:46:42.925Z,98778.00
2023-11-28T18:49:10.471Z,98780.00
2023-11-28T18:51:38.441Z,98778.00
2023-11-28T18:54:06.323Z,98780.00
2023-11-28T18:56:34.999Z,98781.00
2023-11-28T18:59:02.823Z,98781.00
2023-11-28T19:01:33.538Z,98783.00
2023-11-28T19:04:01.103Z,98773.00
2023-11-28T19:06:30.946Z,98783.00
2023-11-28T19:08:59.237Z,98777.00
2023-11-28T19:11:29.938Z,98791.00
2023-11-28T19:14:04.643Z,98785.00
2023-11-28T19:16:35.273Z,98795.00
2023-11-28T19:19:02.909Z,98797.00
2023-11-28T19:21:30.227Z,98792.00
2023-11-28T19:23:57.570Z,98795.00
2023-11-28T19:26:24.997Z,98788.00
2023-11-28T19:28:52.315Z,98771.00
2023-11-28T19:31:19.983Z,98801.00
2023-11-28T19:33:47.945Z,98794.00
2023-11-28T19:36:15.185Z,98801.00
2023-11-28T19:38:43.821Z,98806.00
2023-11-28T19:41:13.714Z,98804.00
2023-11-28T19:43:41.108Z,98803.00
2023-11-28T19:46:09.490Z,98800.00
2023-11-28T19:48:45.030Z,98815.00
2023-11-28T19:51:13.455Z,98810.00
2023-11-28T19:53:44.764Z,98812.00
2023-11-28T19:56:12.700Z,98810.00
2023-11-28T19:58:40.835Z,98810.00
2023-11-28T20:01:09.306Z,98811.00
2023-11-28T20:03:39.744Z,98815.00
2023-11-28T20:06:07.993Z,98826.00
2023-11-28T20:08:36.811Z,98826.00
2023-11-28T20:11:04.725Z,98818.00
2023-11-28T20:13:32.450Z,98821.00
2023-11-28T20:16:02.768Z,98820.00
2023-11-28T20:18:31.389Z,98813.00
2023-11-28T20:20:58.751Z,98818.00
2023-11-28T20:23:25.975Z,98829.00
2023-11-28T20:25:55.113Z,98838.00
2023-11-28T20:28:23.312Z,98829.00
2023-11-28T20:30:51.600Z,98831.00
2023-11-28T20:33:19.107Z,98608.00
2023-11-28T20:35:46.799Z,98850.00
2023-11-28T20:38:14.805Z,98823.00
2023-11-28T20:40:42.073Z,98855.00
2023-11-28T20:43:12.254Z,98856.00
2023-11-28T20:45:39.766Z,98840.00
2023-11-28T20:48:07.395Z,98849.00
2023-11-28T20:50:34.866Z,98858.00
2023-11-28T20:53:03.787Z,98856.00
2023-11-28T20:55:31.294Z,98853.00
2023-11-28T20:58:02.130Z,98844.00
2023-11-28T21:00:30.538Z,98848.00
2023-11-28T21:02:58.130Z,98851.00
2023-11-28T21:05:25.706Z,98849.00
2023-11-28T21:07:53.077Z,98838.00
2023-11-28T21:10:20.535Z,98851.00
2023-11-28T21:12:50.544Z,98852.00
2023-11-28T21:15:19.456Z,98852.00
2023-11-28T21:17:46.949Z,98859.00
2023-11-28T21:20:14.697Z,98848.00
2023-11-28T21:22:42.679Z,98835.00
2023-11-28T21:25:10.132Z,98858.00
2023-11-28T21:27:37.375Z,98850.00
2023-11-28T21:30:05.504Z,98852.00
2023-11-28T21:32:32.783Z,98860.00
2023-11-28T21:35:00.095Z,98855.00
2023-11-28T21:37:28.968Z,98856.00
2023-11-28T21:39:56.304Z,98844.00
2023-11-28T21:42:23.638Z,98857.00
2023-11-28T21:44:51.368Z,98772.00
2023-11-28T21:47:22.692Z,98850.00
2023-11-28T21:49:54.259Z,98843.00
2023-11-28T21:52:26.207Z,98848.00
2023-11-28T21:54:54.265Z,98856.00
2023-11-28T21:57:21.742Z,98857.00
2023-11-28T21:59:49.020Z,98859.00
2023-11-28T22:02:16.717Z,98864.00
2023-11-28T22:04:44.361Z,98851.00
2023-11-28T22:07:11.959Z,98874.00
2023-11-28T22:09:39.203Z,98870.00
2023-11-28T22:12:07.925Z,98879.00
2023-11-28T22:14:35.735Z,98864.00
2023-11-28T22:17:04.028Z,98869.00
2023-11-28T22:19:31.683Z,98886.00
2023-11-28T22:21:59.014Z,98884.00
2023-11-28T22:24:26.545Z,98877.00
2023-11-28T22:26:54.690Z,98879.00
2023-11-28T22:29:22.923Z,98880.00
2023-11-28T22:31:51.426Z,98876.00
2023-11-28T22:34:19.240Z,98873.00
2023-11-28T22:36:47.111Z,98866.00
2023-11-28T22:39:14.489Z,98863.00
2023-11-28T22:41:42.095Z,98856.00
2023-11-28T22:44:11.105Z,98865.00
2023-11-28T22:46:39.702Z,98865.00
2023-11-28T22:49:07.133Z,98863.00
2023-11-28T22:51:35.023Z,98859.00
2023-11-28T22:54:02.850Z,98860.00
2023-11-28T22:56:31.496Z,98860.00
2023-11-28T22:59:02.497Z,98857.00
2023-11-28T23:01:30.887Z,98861.00
2023-11-28T23:04:00.516Z,98857.00
2023-11-28T23:06:28.434Z,98862.00
2023-11-28T23:08:56.663Z,98860.00
2023-11-28T23:11:24.771Z,98859.00
2023-11-28T23:13:52.241Z,98862.00
2023-11-28T23:16:19.898Z,98867.00
2023-11-28T23:18:47.277Z,98868.00
2023-11-28T23:21:14.644Z,98879.00
2023-11-28T23:23:42.082Z,98875.00
2023-11-28T23:26:09.495Z,98879.00
2023-11-28T23:28:37.003Z,98867.00
2023-11-28T23:31:04.554Z,98853.00
2023-11-28T23:33:31.888Z,98868.00
2023-11-28T23:35:59.159Z,98881.00
2023-11-28T23:38:26.411Z,98874.00
2023-11-28T23:40:54.132Z,98877.00
2023-11-28T23:43:21.573Z,98878.00
2023-11-28T23:45:49.412Z,98875.00
2023-11-28T23:48:16.761Z,98879.00
2023-11-28T23:50:44.703Z,98875.00
2023-11-28T23:53:12.560Z,98881.00
2023-11-28T23:55:39.837Z,98879.00
2023-11-28T23:58:07.050Z,98880.00
